Time;durP1;ratioP1;P1;durP2;ratioP2;P2;SDS_P1;SDS_P2;PMS_P1;PMS_P2;Temp;Humidity;BMP_temperature;BMP_pressure;BME280_temperature;BME280_humidity;BME280_pressure;Samples;Min_cycle;Max_cycle;Signal;HPM_P1;HPM_P2
2021/08/18 00:00:09;;;;;;;1.33;0.88;;;;;;;16.40;61.97;99975.38;4480953;31;33696;-85
2021/08/18 00:02:37;;;;;;;1.75;0.90;;;;;;;16.55;61.31;99973.50;4486336;31;33681;-85
2021/08/18 00:05:07;;;;;;;1.48;1.10;;;;;;;16.39;61.93;99982.50;4476415;31;32952;-85
2021/08/18 00:07:35;;;;;;;1.73;1.02;;;;;;;16.56;61.29;99978.72;4473601;31;34696;-85
2021/08/18 00:10:11;;;;;;;2.45;0.80;;;;;;;16.52;61.66;99971.91;4470552;31;32614;-85
2021/08/18 00:12:41;;;;;;;2.72;1.08;;;;;;;16.26;62.67;99983.38;4481800;31;34437;-85
2021/08/18 00:15:14;;;;;;;1.35;0.90;;;;;;;16.19;63.56;99987.38;4480469;31;33430;-84
2021/08/18 00:17:43;;;;;;;1.30;0.98;;;;;;;16.26;63.57;99989.56;4495714;31;34281;-84
2021/08/18 00:20:12;;;;;;;1.12;1.02;;;;;;;16.33;63.29;99998.91;4486614;31;33438;-83
2021/08/18 00:22:39;;;;;;;1.25;0.73;;;;;;;16.49;62.78;99984.56;4484396;31;33612;-83
2021/08/18 00:25:08;;;;;;;6.18;1.60;;;;;;;16.34;63.24;99987.28;4482013;31;33708;-83
2021/08/18 00:27:36;;;;;;;2.42;1.12;;;;;;;16.47;62.86;99982.00;4471152;32;33703;-83
2021/08/18 00:30:16;;;;;;;2.05;1.15;;;;;;;16.45;62.85;99989.25;4490139;31;33351;-83
2021/08/18 00:32:45;;;;;;;2.22;1.40;;;;;;;16.44;62.96;99992.87;4466440;31;33097;-83
2021/08/18 00:35:12;;;;;;;3.22;1.25;;;;;;;16.47;62.79;99986.47;4470476;31;32714;-83
2021/08/18 00:37:40;;;;;;;1.40;1.25;;;;;;;16.58;62.18;99966.16;4458214;31;34331;-83
2021/08/18 00:40:08;;;;;;;1.55;0.90;;;;;;;16.56;62.63;99972.53;4470017;31;32534;-83
2021/08/18 00:42:36;;;;;;;1.12;0.88;;;;;;;16.61;62.55;99971.28;4476436;31;33916;-83
2021/08/18 00:45:04;;;;;;;1.92;1.27;;;;;;;16.59;62.56;99959.03;4469152;31;33422;-83
2021/08/18 00:47:44;;;;;;;1.42;0.90;;;;;;;16.36;63.45;99963.19;4486278;31;34849;-84
2021/08/18 00:50:15;;;;;;;2.03;1.37;;;;;;;16.62;62.63;99962.34;4465226;31;33861;-83
2021/08/18 00:52:42;;;;;;;2.17;1.20;;;;;;;16.51;63.22;99962.19;4475735;31;33141;-83
2021/08/18 00:55:12;;;;;;;1.87;1.17;;;;;;;16.53;63.56;99968.28;4486176;31;33677;-83
2021/08/18 00:57:40;;;;;;;4.87;0.90;;;;;;;16.50;63.52;99975.63;4484021;31;34608;-83
2021/08/18 01:00:10;;;;;;;1.35;1.10;;;;;;;16.61;62.95;99976.59;4491781;31;33446;-83
2021/08/18 01:02:39;;;;;;;2.15;1.17;;;;;;;16.75;62.37;99977.53;4477008;31;32765;-84
2021/08/18 01:05:11;;;;;;;1.62;1.10;;;;;;;16.73;62.16;99979.47;4474793;31;34013;-83
2021/08/18 01:07:42;;;;;;;;;;;;;;;16.75;61.90;99967.72;4488231;31;33151;-83
2021/08/18 01:10:12;;;;;;;3.83;1.35;;;;;;;16.70;62.43;99979.63;4466378;31;33039;-85
2021/08/18 01:12:40;;;;;;;1.20;1.08;;;;;;;16.77;62.13;99984.50;4469633;32;32912;-85
2021/08/18 01:15:10;;;;;;;1.77;1.33;;;;;;;16.78;62.38;99985.34;4468082;32;34809;-84
2021/08/18 01:17:40;;;;;;;1.73;1.05;;;;;;;16.73;62.65;99987.47;4475506;31;32693;-84
2021/08/18 01:20:29;;;;;;;3.55;1.37;;;;;;;16.82;62.19;99977.03;4469381;32;34237;-84
2021/08/18 01:22:58;;;;;;;1.77;1.20;;;;;;;16.75;62.39;99969.53;4480426;31;33444;-85
2021/08/18 01:25:26;;;;;;;4.72;1.23;;;;;;;16.74;62.60;99979.34;4471085;31;33564;-84
2021/08/18 01:27:58;;;;;;;2.55;1.02;;;;;;;16.65;63.17;99983.44;4478958;31;33943;-84
2021/08/18 01:30:28;;;;;;;1.95;1.25;;;;;;;16.84;62.69;99980.44;4460014;31;32753;-84
2021/08/18 01:33:04;;;;;;;1.80;1.05;;;;;;;16.85;62.70;99970.63;4483610;31;33638;-85
2021/08/18 01:39:16;;;;;;;4.12;1.25;;;;;;;16.70;63.64;99982.28;4317733;33;34748;-85
2021/08/18 01:41:44;;;;;;;2.12;1.12;;;;;;;16.68;63.59;99982.41;4346734;33;32897;-84
2021/08/18 01:44:12;;;;;;;2.42;1.15;;;;;;;16.70;63.44;99976.97;4302454;33;33731;-84
2021/08/18 01:46:41;;;;;;;2.00;1.30;;;;;;;16.76;63.45;99971.25;4313411;33;33135;-84
2021/08/18 01:49:11;;;;;;;1.40;1.30;;;;;;;16.63;63.80;99972.03;4324207;33;33939;-84
2021/08/18 01:51:42;;;;;;;;;;;;;;;16.55;63.83;99968.16;4315325;33;32545;-84
2021/08/18 01:54:20;;;;;;;1.55;1.20;;;;;;;16.40;63.99;99975.38;4340420;33;34276;-84
2021/08/18 01:56:48;;;;;;;2.50;1.48;;;;;;;16.42;63.68;99989.44;4304874;33;33113;-84
2021/08/18 01:59:16;;;;;;;2.30;1.40;;;;;;;16.81;62.49;99987.81;4310449;33;33862;-84
2021/08/18 02:01:47;;;;;;;3.75;2.10;;;;;;;16.96;61.91;99977.94;4315784;33;32854;-83
2021/08/18 02:04:18;;;;;;;1.62;1.05;;;;;;;16.66;63.20;99976.31;4323546;33;32710;-83
2021/08/18 02:06:45;;;;;;;3.45;1.00;;;;;;;16.59;63.50;99981.19;4304186;33;34559;-83
2021/08/18 02:09:13;;;;;;;2.22;1.58;;;;;;;16.72;63.27;99980.44;4310742;33;33305;-84
2021/08/18 02:11:41;;;;;;;2.10;1.30;;;;;;;16.68;63.29;99982.41;4309731;33;32533;-84
2021/08/18 02:34:38;;;;;;;2.28;1.27;;;;;;;16.74;63.58;99967.84;3688386;33;20359338;-84
2021/08/18 02:37:06;;;;;;;1.73;0.98;;;;;;;16.67;63.41;99966.53;4286599;33;34581;-83
2021/08/18 02:39:33;;;;;;;2.35;1.20;;;;;;;16.91;62.21;99962.25;4274402;33;32533;-83
2021/08/18 02:42:00;;;;;;;1.73;1.40;;;;;;;16.65;63.22;99970.13;4267680;33;32882;-83
2021/08/18 02:44:27;;;;;;;1.77;1.10;;;;;;;16.61;63.41;99976.59;4295371;33;33738;-83
2021/08/18 02:47:12;;;;;;;4.32;1.23;;;;;;;17.43;61.23;99976.50;3881902;31;20089813;-81
2021/08/18 02:49:48;;;;;;;3.28;1.37;;;;;;;17.43;61.23;99976.50;4489558;31;33667;-81
2021/08/18 02:52:21;;;;;;;1.65;1.17;;;;;;;16.76;63.17;99966.81;4487691;32;35227;-81
2021/08/18 02:54:52;;;;;;;2.95;1.50;;;;;;;16.72;63.39;99954.63;4475059;32;33999;-81
2021/08/18 02:57:24;;;;;;;2.37;1.35;;;;;;;16.80;62.94;99946.94;4470790;32;34301;-81
2021/08/18 02:59:57;;;;;;;2.60;1.27;;;;;;;16.58;62.65;99952.84;4470935;32;34657;-81
2021/08/18 03:02:28;;;;;;;1.77;1.37;;;;;;;16.51;62.10;99951.50;4474368;32;34062;-81
2021/08/18 03:04:57;;;;;;;3.35;1.30;;;;;;;16.73;61.71;99966.12;4476536;32;32731;-81
2021/08/18 03:07:27;;;;;;;1.90;1.33;;;;;;;16.72;62.08;99969.78;4488415;31;33018;-81
2021/08/18 03:09:57;;;;;;;2.03;1.58;;;;;;;16.64;62.77;99968.41;4475617;32;34285;-81
2021/08/18 03:12:42;;;;;;;2.45;1.27;;;;;;;16.80;62.50;99980.75;4463350;32;34272;-81
2021/08/18 03:15:33;;;;;;;11.20;1.75;;;;;;;16.48;63.90;99973.06;4474766;32;33808;-81
2021/08/18 03:18:15;;;;;;;1.80;1.20;;;;;;;16.66;63.45;99968.31;4474535;32;34299;-80
2021/08/18 03:21:02;;;;;;;1.75;1.20;;;;;;;16.77;63.00;99967.66;4487652;32;34889;-81
2021/08/18 03:24:04;;;;;;;1.98;1.10;;;;;;;16.72;63.00;99969.78;4482847;32;34161;-81
2021/08/18 03:26:33;;;;;;;1.52;1.20;;;;;;;16.82;62.62;99970.87;4485948;32;33927;-80
2021/08/18 03:29:16;;;;;;;2.12;1.62;;;;;;;16.67;62.62;99974.53;4474387;32;32580;-80
2021/08/18 03:31:46;;;;;;;1.52;1.23;;;;;;;16.70;62.43;99977.81;4487549;32;33852;-81
2021/08/18 03:34:15;;;;;;;2.83;1.27;;;;;;;16.72;62.29;99977.78;4487744;32;33774;-81
2021/08/18 03:36:43;;;;;;;5.57;1.80;;;;;;;16.83;62.03;99984.09;4475720;32;32692;-80
2021/08/18 03:39:11;;;;;;;2.25;1.37;;;;;;;16.75;62.47;99988.22;4476357;32;32403;-81
2021/08/18 03:41:43;;;;;;;1.85;0.95;;;;;;;16.79;62.18;99987.06;4474095;32;34042;-81
2021/08/18 03:44:12;;;;;;;2.35;1.48;;;;;;;16.72;62.65;99988.44;4491607;31;34163;-81
2021/08/18 03:46:42;;;;;;;2.37;1.17;;;;;;;16.94;62.04;99969.16;4484641;32;33842;-81
2021/08/18 03:49:11;;;;;;;4.70;1.60;;;;;;;17.14;61.37;99961.53;4478791;32;32725;-81
2021/08/18 03:51:52;;;;;;;8.13;1.12;;;;;;;17.26;61.00;99954.50;4491045;32;34143;-81
2021/08/18 03:54:22;;;;;;;2.40;0.98;;;;;;;16.78;62.73;99953.34;4488536;32;34174;-81
2021/08/18 03:57:03;;;;;;;2.28;1.40;;;;;;;16.83;62.75;99952.09;4485771;32;34896;-82
2021/08/18 03:59:39;;;;;;;2.03;1.37;;;;;;;16.88;62.19;99959.78;4484271;32;34087;-82
2021/08/18 04:02:07;;;;;;;5.22;1.73;;;;;;;16.50;64.14;99955.16;4467436;32;33508;-82
2021/08/18 04:04:36;;;;;;;2.37;1.33;;;;;;;16.52;64.33;99969.25;4463269;32;33765;-80
2021/08/18 04:07:05;;;;;;;1.80;1.33;;;;;;;16.50;64.24;99971.13;4476880;32;33552;-82
2021/08/18 04:10:15;;;;;;;3.45;1.42;;;;;;;16.61;64.30;99970.44;4460199;32;32486;-81
2021/08/18 04:13:15;;;;;;;4.00;1.50;;;;;;;16.72;64.04;99973.28;4473702;32;34350;-82
2021/08/18 04:15:55;;;;;;;3.55;1.35;;;;;;;16.68;63.99;99979.75;4468631;32;33604;-83
2021/08/18 04:18:39;;;;;;;3.28;1.50;;;;;;;16.72;63.94;99972.44;4464533;32;33548;-82
2021/08/18 04:21:36;;;;;;;3.15;1.67;;;;;;;16.81;63.59;99980.69;4457109;32;33549;-82
2021/08/18 04:24:04;;;;;;;1.80;1.23;;;;;;;16.72;63.99;99973.28;4453746;32;33208;-82
2021/08/18 04:26:50;;;;;;;2.35;1.83;;;;;;;16.85;63.79;99983.97;4467011;32;34053;-82
2021/08/18 04:29:19;;;;;;;2.55;1.27;;;;;;;16.91;63.16;99985.41;4476987;32;33025;-83
2021/08/18 04:31:51;;;;;;;4.47;1.83;;;;;;;17.01;62.69;99992.69;4459020;32;33414;-82
2021/08/18 04:34:20;;;;;;;4.37;1.65;;;;;;;16.95;63.20;99995.75;4450910;32;33852;-83
2021/08/18 04:36:50;;;;;;;1.33;1.15;;;;;;;17.14;62.57;99998.91;4481035;32;34047;-82
2021/08/18 04:39:33;;;;;;;3.55;2.12;;;;;;;17.18;62.34;99998.66;4465446;32;34250;-82
2021/08/18 04:42:35;;;;;;;4.20;1.77;;;;;;;17.35;61.90;99993.03;4474591;32;33146;-82
2021/08/18 04:45:18;;;;;;;2.40;1.60;;;;;;;17.46;61.79;99995.81;4433092;32;32424;-81
2021/08/18 04:47:54;;;;;;;2.00;1.60;;;;;;;17.24;62.74;100008.94;4460231;32;34764;-81
2021/08/18 04:50:32;;;;;;;3.97;1.85;;;;;;;17.13;63.11;99999.84;4453437;32;34963;-81
2021/08/18 04:53:15;;;;;;;6.10;1.60;;;;;;;17.12;63.02;100005.28;4462476;32;33390;-81
2021/08/18 04:55:58;;;;;;;1.83;1.40;;;;;;;17.01;63.74;100019.34;4474051;32;34238;-81
2021/08/18 04:58:29;;;;;;;3.33;2.42;;;;;;;17.05;64.13;100023.53;4464999;32;34940;-81
2021/08/18 05:00:59;;;;;;;7.18;2.15;;;;;;;17.30;63.59;100021.88;4457529;32;34027;-81
2021/08/18 05:03:35;;;;;;;2.47;1.83;;;;;;;17.32;63.49;100022.59;4463833;32;33636;-82
2021/08/18 05:06:19;;;;;;;6.07;1.37;;;;;;;17.44;62.88;100032.47;4472408;32;34239;-81
2021/08/18 05:09:08;;;;;;;5.50;1.60;;;;;;;17.36;62.75;100034.78;4458717;32;33683;-81
2021/08/18 05:12:16;;;;;;;5.55;1.23;;;;;;;17.43;62.57;100020.06;4467614;32;34555;-82
2021/08/18 05:14:59;;;;;;;;;;;;;;;17.60;62.42;100032.25;4463885;32;33556;-81
2021/08/18 05:17:45;;;;;;;3.75;1.92;;;;;;;17.77;61.39;100028.44;4449000;32;33253;-81
2021/08/18 05:20:34;;;;;;;3.83;1.83;;;;;;;17.71;61.87;100021.69;4469104;32;33458;-81
2021/08/18 05:23:34;;;;;;;2.67;1.90;;;;;;;17.75;61.49;100019.66;4457986;32;35985;-81
2021/08/18 05:26:13;;;;;;;3.80;1.75;;;;;;;17.85;60.46;100031.41;4459647;32;32462;-81
2021/08/18 05:29:17;;;;;;;4.03;1.58;;;;;;;17.79;59.28;100037.19;4464482;32;33644;-81
2021/08/18 05:32:22;;;;;;;3.78;1.23;;;;;;;18.06;58.05;100026.41;4470336;32;35311;-81
2021/08/18 05:35:20;;;;;;;3.65;2.15;;;;;;;18.15;57.71;100029.25;4465809;32;34061;-81
2021/08/18 05:38:26;;;;;;;4.18;1.92;;;;;;;18.46;57.34;100027.03;4465028;32;33295;-83
2021/08/18 05:41:27;;;;;;;3.80;2.07;;;;;;;18.35;57.82;100024.31;4469290;32;35037;-81
2021/08/18 05:44:31;;;;;;;3.97;2.33;;;;;;;18.23;58.66;100030.53;4464831;32;34264;-81
2021/08/18 05:47:33;;;;;;;3.67;2.05;;;;;;;18.19;58.42;100021.03;4480608;32;34512;-83
2021/08/18 05:50:40;;;;;;;;;;;;;;;18.03;59.15;100031.94;4468166;32;32617;-82
2021/08/18 05:54:30;;;;;;;2.60;1.90;;;;;;;18.10;57.64;100031.41;4474963;32;34706;-82
2021/08/18 07:18:53;;;;;;;1.90;1.58;;;;;;;20.82;50.09;99993.50;4513661;31;93622;-82
2021/08/18 07:21:21;;;;;;;3.78;1.70;;;;;;;20.82;50.09;99993.50;4492164;31;32184;-83
2021/08/18 07:23:52;;;;;;;3.55;1.92;;;;;;;20.01;51.05;99997.41;4500870;31;33600;-84
2021/08/18 07:26:25;;;;;;;6.40;2.22;;;;;;;20.45;50.99;100001.88;4484627;31;33769;-84
2021/08/18 07:28:54;;;;;;;5.15;2.00;;;;;;;20.48;50.54;100002.63;4497443;31;32625;-83
2021/08/18 07:31:23;;;;;;;2.78;1.90;;;;;;;20.59;49.08;100003.44;4480801;31;32408;-83
2021/08/18 07:33:50;;;;;;;3.42;1.67;;;;;;;20.74;49.59;99997.78;4476710;32;33045;-83
2021/08/18 07:36:38;;;;;;;4.90;2.22;;;;;;;20.94;49.09;99995.19;4486023;31;34718;-84
2021/08/18 07:39:06;;;;;;;4.43;1.95;;;;;;;21.22;47.52;99999.06;4438202;32;33021;-84
2021/08/18 07:41:34;;;;;;;2.85;1.60;;;;;;;21.18;47.03;100002.16;4427359;32;32354;-84
2021/08/18 07:44:02;;;;;;;3.28;2.58;;;;;;;21.47;47.01;100000.53;4440874;32;33569;-84
2021/08/18 07:46:33;;;;;;;5.12;2.78;;;;;;;21.93;45.65;99999.25;4422142;32;33206;-84
2021/08/18 07:49:01;;;;;;;3.72;2.08;;;;;;;21.69;45.95;99988.78;4442233;32;33847;-84
2021/08/18 07:51:30;;;;;;;3.15;2.17;;;;;;;21.79;47.12;99998.72;4443107;32;34217;-84
2021/08/18 07:53:57;;;;;;;3.90;1.85;;;;;;;22.03;47.11;99991.22;4453981;32;33967;-84
2021/08/18 07:56:28;;;;;;;5.30;2.10;;;;;;;22.05;45.04;99996.44;4442648;32;34178;-85
2021/08/18 07:59:00;;;;;;;3.00;1.90;;;;;;;22.31;43.33;99988.75;4440178;32;32462;-84
2021/08/18 08:01:34;;;;;;;3.78;2.47;;;;;;;22.23;46.14;99998.38;4444179;32;33417;-84
2021/08/18 08:04:03;;;;;;;4.15;2.40;;;;;;;22.34;43.74;99994.72;4436368;32;33390;-84
2021/08/18 08:10:55;;;;;;;4.80;2.50;;;;;;;22.33;44.49;99989.50;4295508;33;34362;-83
2021/08/18 08:13:21;;;;;;;7.45;2.45;;;;;;;22.19;43.99;99991.56;4275298;33;34199;-83
2021/08/18 08:16:04;;;;;;;6.95;2.72;;;;;;;22.34;43.81;99994.72;4302153;33;33282;-83
2021/08/18 08:18:32;;;;;;;5.87;2.47;;;;;;;22.66;43.81;99989.12;4318604;33;33164;-83
2021/08/18 08:20:59;;;;;;;5.47;2.78;;;;;;;22.64;41.93;99993.78;4311928;33;33938;-83
2021/08/18 08:23:27;;;;;;;4.72;2.50;;;;;;;23.04;40.68;99992.87;4314097;33;34196;-84
2021/08/18 08:25:55;;;;;;;4.57;2.22;;;;;;;22.81;40.84;99996.78;4314521;33;34579;-83
2021/08/18 08:36:02;;;;;;;6.97;2.90;;;;;;;24.05;38.55;99988.69;4492435;31;101892;-82
2021/08/18 08:38:30;;;;;;;3.55;2.42;;;;;;;24.05;38.55;99988.69;4505895;31;33326;-83
2021/08/18 08:40:58;;;;;;;5.30;2.58;;;;;;;23.07;41.35;99989.03;4512906;31;34143;-83
2021/08/18 08:43:28;;;;;;;4.10;2.70;;;;;;;23.55;38.52;99985.41;4509784;31;33611;-82
2021/08/18 09:45:24;;;;;;;4.22;2.58;;;;;;;25.07;33.88;99956.09;4498301;31;152701;-82
2021/08/18 09:48:12;;;;;;;3.12;1.75;;;;;;;25.07;33.88;99956.09;4495928;31;33528;-82
2021/08/18 09:50:44;;;;;;;4.43;2.30;;;;;;;24.95;34.66;99968.09;4483550;31;33817;-82
2021/08/18 09:53:19;;;;;;;8.00;2.05;;;;;;;25.07;34.33;99955.19;4499927;31;33398;-83
2021/08/18 09:55:52;;;;;;;3.08;1.92;;;;;;;25.09;35.05;99967.59;4488629;32;32772;-82
2021/08/18 09:59:01;;;;;;;4.45;2.08;;;;;;;24.90;35.39;99971.25;4498431;31;33438;-83
2021/08/18 10:01:28;;;;;;;4.22;2.03;;;;;;;24.86;34.82;99967.19;4401420;32;33892;-82
2021/08/18 10:03:57;;;;;;;6.97;2.17;;;;;;;24.65;35.11;99964.78;4391900;32;34833;-82
2021/08/18 10:06:25;;;;;;;3.03;1.85;;;;;;;24.74;34.69;99963.03;4379291;32;32452;-82
2021/08/18 10:08:55;;;;;;;4.95;2.08;;;;;;;24.40;34.79;99969.09;4401568;32;32197;-82
2021/08/18 10:11:24;;;;;;;3.75;1.80;;;;;;;24.44;34.68;99962.34;4390920;32;33861;-82
2021/08/18 10:21:58;;;;;;;4.00;2.00;;;;;;;24.72;35.65;99962.31;4497452;31;42524;-84
2021/08/18 10:24:29;;;;;;;2.67;1.67;;;;;;;24.72;35.65;99962.31;4479891;31;33215;-84
2021/08/18 10:26:57;;;;;;;2.92;1.60;;;;;;;24.59;35.54;99956.44;4467895;32;33961;-84
2021/08/18 10:29:30;;;;;;;4.90;2.10;;;;;;;24.62;35.34;99959.69;4484202;32;33409;-84
2021/08/18 10:32:06;;;;;;;4.53;2.10;;;;;;;24.68;35.08;99953.66;4488174;32;33735;-85
2021/08/18 10:34:42;;;;;;;3.80;1.70;;;;;;;25.43;33.52;99942.50;4475328;32;33657;-84
2021/08/18 10:37:13;;;;;;;3.42;1.52;;;;;;;25.30;32.09;99940.19;4486574;31;34189;-84
2021/08/18 10:39:43;;;;;;;4.62;2.12;;;;;;;24.72;32.92;99944.25;4489980;32;34690;-85
2021/08/18 10:42:13;;;;;;;5.22;1.83;;;;;;;24.99;35.31;99935.22;4486149;31;33253;-84
2021/08/18 10:44:48;;;;;;;4.37;2.00;;;;;;;25.40;33.08;99931.97;4488422;32;33076;-84
2021/08/18 10:47:28;;;;;;;3.00;1.92;;;;;;;25.67;33.30;99934.53;4481081;32;33945;-84
2021/08/18 10:50:23;;;;;;;2.72;1.80;;;;;;;25.84;34.09;99930.09;4482979;31;34745;-84
2021/08/18 10:52:54;;;;;;;2.50;1.60;;;;;;;25.63;33.81;99938.56;4485949;31;33424;-84
2021/08/18 10:55:23;;;;;;;3.90;2.05;;;;;;;25.72;32.74;99932.19;4484606;32;32981;-84
2021/08/18 10:57:56;;;;;;;3.40;1.90;;;;;;;26.19;31.81;99937.16;4491008;31;34709;-85
2021/08/18 11:00:44;;;;;;;2.90;1.87;;;;;;;26.17;32.25;99933.78;4478447;32;34028;-84
2021/08/18 11:03:12;;;;;;;1.77;1.37;;;;;;;26.05;32.22;99938.63;4468027;32;34063;-84
2021/08/18 11:05:42;;;;;;;3.12;1.87;;;;;;;25.96;31.28;99938.75;4478273;32;33252;-84
2021/08/18 11:08:17;;;;;;;2.55;1.52;;;;;;;25.73;32.28;99943.84;4482080;32;33345;-83
2021/08/18 11:10:54;;;;;;;1.90;1.20;;;;;;;25.24;31.61;99949.78;4477255;32;34604;-84
2021/08/18 11:13:47;;;;;;;2.60;1.95;;;;;;;25.63;30.67;99943.97;4490329;32;33535;-84
2021/08/18 11:16:24;;;;;;;2.53;1.65;;;;;;;25.84;30.78;99934.66;4493454;32;33378;-84
2021/08/18 11:18:54;;;;;;;1.85;1.40;;;;;;;25.78;31.38;99939.69;4482085;31;33531;-84
2021/08/18 11:21:31;;;;;;;4.62;2.58;;;;;;;26.03;31.05;99934.41;4475305;32;33394;-84
2021/08/18 11:24:04;;;;;;;4.47;1.73;;;;;;;25.47;31.55;99935.75;4484347;32;33166;-84
2021/08/18 11:26:37;;;;;;;2.85;1.50;;;;;;;25.59;30.70;99950.72;4466063;31;33052;-84
2021/08/18 11:29:13;;;;;;;3.25;2.15;;;;;;;25.36;30.85;99941.44;4485343;32;33561;-84
2021/08/18 11:31:45;;;;;;;3.22;1.92;;;;;;;25.98;31.13;99936.75;4481344;32;33083;-84
2021/08/18 11:34:31;;;;;;;2.05;1.27;;;;;;;26.08;31.41;99936.62;4474320;31;32520;-84
2021/08/18 11:37:05;;;;;;;6.53;1.70;;;;;;;26.29;29.27;99921.59;4465085;32;32317;-84
2021/08/18 11:39:41;;;;;;;1.67;0.95;;;;;;;26.42;30.42;99925.72;4475551;31;34779;-85
2021/08/18 11:42:24;;;;;;;3.22;1.35;;;;;;;26.81;28.03;99924.09;4462072;32;33246;-84
2021/08/18 11:45:15;;;;;;;2.83;1.67;;;;;;;26.45;28.85;99928.12;4481764;32;34430;-85
2021/08/18 11:47:46;;;;;;;2.05;1.50;;;;;;;26.77;28.06;99922.72;4474698;32;33386;-84
2021/08/18 11:50:14;;;;;;;2.08;1.40;;;;;;;26.10;31.64;99929.16;4461489;32;32944;-84
2021/08/18 11:52:42;;;;;;;1.65;1.17;;;;;;;26.23;30.31;99924.97;4476493;32;34083;-85
2021/08/18 11:55:10;;;;;;;1.90;1.15;;;;;;;26.12;29.50;99925.28;4453274;32;32889;-83
2021/08/18 11:57:38;;;;;;;2.00;1.23;;;;;;;25.50;30.67;99919.22;4469034;32;32324;-83
2021/08/18 12:00:07;;;;;;;3.42;1.12;;;;;;;25.73;30.24;99916.78;4470972;32;32453;-83
2021/08/18 12:02:35;;;;;;;1.90;1.08;;;;;;;25.19;34.59;99925.09;4473356;32;33675;-83
2021/08/18 12:05:05;;;;;;;5.85;1.70;;;;;;;25.37;31.12;99918.81;4474848;32;33840;-83
2021/08/18 12:07:38;;;;;;;2.83;1.27;;;;;;;25.20;31.65;99921.38;4472052;32;32846;-84
2021/08/18 12:10:14;;;;;;;6.12;1.50;;;;;;;24.52;35.12;99934.63;4478854;32;34096;-84
2021/08/18 12:12:42;;;;;;;1.92;0.98;;;;;;;25.11;31.74;99932.28;4474114;31;33378;-84
2021/08/18 12:15:13;;;;;;;1.75;1.20;;;;;;;25.18;31.94;99934.22;4476533;32;33935;-84
2021/08/18 12:17:42;;;;;;;1.87;1.17;;;;;;;24.98;32.42;99930.84;4475554;31;33221;-84
2021/08/18 12:20:23;;;;;;;1.62;1.00;;;;;;;24.70;33.09;99929.22;4467589;32;34433;-86
2021/08/18 12:22:51;;;;;;;2.08;1.20;;;;;;;24.38;32.70;99938.69;4473135;31;34119;-84
2021/08/18 12:25:28;;;;;;;2.75;1.17;;;;;;;24.06;32.84;99936.44;4457123;32;33401;-86
2021/08/18 12:28:22;;;;;;;2.75;1.60;;;;;;;24.62;33.54;99937.25;4461680;32;33543;-86
2021/08/18 12:30:56;;;;;;;2.58;1.10;;;;;;;24.66;32.67;99927.84;4479773;32;34501;-92
2021/08/18 12:33:25;;;;;;;4.50;1.00;;;;;;;25.05;32.07;99931.03;4460975;32;34596;-89
2021/08/18 12:36:09;;;;;;;1.17;0.98;;;;;;;24.93;32.46;99918.81;4469739;32;33720;-89
2021/08/18 12:38:52;;;;;;;2.55;1.77;;;;;;;24.80;33.02;99912.94;4456651;32;32452;-89
2021/08/18 12:41:35;;;;;;;1.70;1.10;;;;;;;24.69;33.32;99914.88;4469913;32;34635;-89
2021/08/18 12:44:14;;;;;;;1.58;1.05;;;;;;;24.66;32.96;99911.63;4468449;32;34119;-89
2021/08/18 12:46:44;;;;;;;4.37;1.00;;;;;;;24.64;32.87;99909.09;4457144;32;32709;-89
2021/08/18 12:49:31;;;;;;;1.20;0.80;;;;;;;24.37;33.40;99911.88;4469648;32;34022;-87
2021/08/18 12:56:23;;;;;;;2.12;1.30;;;;;;;24.49;33.38;99907.91;4342142;32;33651;-85
2021/08/18 12:58:52;;;;;;;1.25;0.93;;;;;;;24.67;34.21;99900.69;4328761;32;32721;-85
2021/08/18 13:01:23;;;;;;;1.70;0.98;;;;;;;24.75;33.20;99889.94;4334619;33;33483;-88
2021/08/18 13:03:52;;;;;;;1.55;1.12;;;;;;;24.36;33.95;99896.66;4349134;32;32786;-91
2021/08/18 13:06:19;;;;;;;2.62;1.17;;;;;;;24.42;34.23;99898.75;4336761;32;33246;-89
2021/08/18 13:08:47;;;;;;;2.20;1.12;;;;;;;24.28;34.11;99906.34;4348685;32;33650;-89
2021/08/18 13:11:15;;;;;;;1.55;1.20;;;;;;;24.48;34.13;99898.12;4324881;32;32492;-90
2021/08/18 13:13:43;;;;;;;4.87;1.10;;;;;;;24.06;34.38;99908.59;4349400;32;32752;-89
2021/08/18 13:16:11;;;;;;;1.42;1.17;;;;;;;24.21;33.92;99913.38;4336492;32;33024;-89
2021/08/18 13:18:39;;;;;;;3.45;1.40;;;;;;;24.27;34.76;99896.56;4336900;32;33943;-88
2021/08/18 13:21:06;;;;;;;1.12;0.80;;;;;;;24.19;35.41;99898.31;4336389;32;32637;-89
2021/08/18 13:23:34;;;;;;;2.15;1.02;;;;;;;24.31;33.43;99890.81;4334221;33;32954;-89
2021/08/18 13:26:03;;;;;;;3.22;0.88;;;;;;;24.22;33.65;99893.47;4334204;33;34432;-89
2021/08/18 13:28:31;;;;;;;2.05;1.20;;;;;;;24.14;34.74;99890.66;4336480;32;32996;-89
2021/08/18 13:30:58;;;;;;;2.10;1.33;;;;;;;24.17;34.70;99890.38;4346365;33;34079;-88
2021/08/18 13:33:26;;;;;;;3.62;1.30;;;;;;;23.99;35.19;99898.44;4440690;32;34096;-90
2021/08/18 13:35:54;;;;;;;3.30;1.30;;;;;;;23.46;36.46;99895.53;4469363;32;34670;-89
2021/08/18 13:38:21;;;;;;;2.53;1.37;;;;;;;23.87;37.38;99896.91;4468856;32;32417;-89
2021/08/18 13:40:52;;;;;;;2.15;1.20;;;;;;;23.86;36.63;99889.84;4443379;32;33538;-89
2021/08/18 13:43:20;;;;;;;2.75;1.12;;;;;;;23.82;35.29;99884.91;4443584;32;34281;-89
2021/08/18 13:45:53;;;;;;;2.00;0.95;;;;;;;23.97;36.83;99891.47;4456057;32;33469;-89
2021/08/18 13:48:21;;;;;;;1.48;0.88;;;;;;;24.28;35.38;99889.31;4456436;32;32759;-88
2021/08/18 13:50:49;;;;;;;1.35;0.93;;;;;;;24.46;35.82;99883.97;4470957;32;32253;-89
2021/08/18 13:53:17;;;;;;;2.28;1.40;;;;;;;24.88;34.84;99876.06;4471322;32;34008;-88
2021/08/18 13:55:45;;;;;;;2.12;1.42;;;;;;;25.16;34.38;99875.91;4484572;32;35002;-89
2021/08/18 13:58:12;;;;;;;1.67;0.95;;;;;;;24.98;33.74;99878.66;4471358;32;33925;-89
2021/08/18 14:00:40;;;;;;;1.75;1.10;;;;;;;24.93;34.08;99870.19;4471766;32;33731;-89
2021/08/18 14:03:10;;;;;;;3.40;1.08;;;;;;;25.35;33.04;99866.75;4484470;32;33801;-89
2021/08/18 14:05:38;;;;;;;1.75;1.10;;;;;;;25.02;34.61;99880.03;4471198;32;33441;-88
2021/08/18 14:12:27;;;;;;;2.85;1.25;;;;;;;24.88;34.54;99875.22;4485887;32;34048;-89
2021/08/18 14:14:55;;;;;;;1.65;1.15;;;;;;;24.53;35.28;99866.97;4470992;32;33179;-88
2021/08/18 14:17:23;;;;;;;3.10;1.23;;;;;;;24.54;35.27;99870.50;4464209;32;33771;-87
2021/08/18 14:19:51;;;;;;;2.08;1.42;;;;;;;24.90;34.42;99870.47;4463107;32;34118;-86
2021/08/18 14:22:19;;;;;;;2.85;1.20;;;;;;;24.97;34.77;99871.53;4468497;32;33316;-86
2021/08/18 14:24:46;;;;;;;2.12;1.20;;;;;;;24.70;35.01;99881.47;4464441;32;32207;-87
2021/08/18 14:27:14;;;;;;;2.50;1.45;;;;;;;24.78;34.91;99875.28;4461814;32;34902;-86
2021/08/18 14:29:42;;;;;;;2.92;1.30;;;;;;;24.48;35.04;99871.13;4482289;31;34177;-86
2021/08/18 14:32:09;;;;;;;1.17;0.65;;;;;;;24.79;34.35;99874.28;4478036;32;33054;-86
2021/08/18 14:34:37;;;;;;;2.42;1.30;;;;;;;24.03;35.57;99893.59;4472951;32;33860;-86
2021/08/18 14:37:06;;;;;;;2.55;1.20;;;;;;;24.57;35.09;99875.62;4469907;32;34132;-86
2021/08/18 14:39:34;;;;;;;2.05;1.12;;;;;;;24.61;35.08;99866.19;4451188;32;33032;-87
2021/08/18 14:42:02;;;;;;;4.25;1.00;;;;;;;24.32;36.63;99865.56;4475038;32;33435;-86
2021/08/18 14:44:29;;;;;;;5.05;1.37;;;;;;;24.35;36.49;99865.25;4461674;32;34454;-86
2021/08/18 14:46:57;;;;;;;1.95;1.12;;;;;;;24.61;34.46;99866.19;4460618;32;34957;-87
2021/08/18 14:49:28;;;;;;;3.55;2.00;;;;;;;24.44;34.26;99869.75;4474778;32;34232;-87
2021/08/18 14:51:56;;;;;;;2.05;1.00;;;;;;;24.35;34.70;99873.34;4467812;32;32255;-86
2021/08/18 14:54:23;;;;;;;1.87;0.88;;;;;;;24.37;35.26;99868.69;4476801;32;32960;-87
2021/08/18 14:56:51;;;;;;;3.33;1.27;;;;;;;24.41;33.97;99859.28;4472581;32;33573;-86
2021/08/18 14:59:19;;;;;;;5.62;0.95;;;;;;;24.17;35.02;99862.56;4475306;32;33895;-87
2021/08/18 15:01:47;;;;;;;2.83;0.98;;;;;;;24.40;34.29;99861.13;4453718;32;32574;-86
2021/08/18 15:04:28;;;;;;;1.77;0.80;;;;;;;24.12;35.78;99857.63;4459261;31;34249;-86
2021/08/18 15:06:56;;;;;;;2.95;1.10;;;;;;;24.30;34.91;99859.47;4476546;32;34010;-87
2021/08/18 15:09:23;;;;;;;2.70;1.20;;;;;;;24.33;35.12;99851.06;4474753;32;34504;-87
2021/08/18 15:11:51;;;;;;;1.40;1.00;;;;;;;24.05;34.63;99853.81;4468510;32;33190;-87
2021/08/18 15:14:19;;;;;;;1.60;0.85;;;;;;;23.87;36.64;99861.88;4469387;32;32948;-86
2021/08/18 15:16:47;;;;;;;1.40;0.88;;;;;;;24.03;34.90;99850.44;4478082;32;33008;-86
2021/08/18 15:19:14;;;;;;;2.12;0.73;;;;;;;23.94;35.34;99864.81;4472180;32;34197;-87